createdAt,value
2019-03-24T00:00:58.489Z,69.76
2019-03-24T00:01:58.463Z,69.86
2019-03-24T00:02:58.469Z,69.56
2019-03-24T00:03:58.478Z,69.86
2019-03-24T00:04:58.447Z,69.79
2019-03-24T00:05:58.407Z,69.79
2019-03-24T00:06:58.405Z,69.48
2019-03-24T00:07:58.410Z,69.07
2019-03-24T00:08:58.390Z,69.07
2019-03-24T00:09:58.355Z,69.07
2019-03-24T00:10:58.344Z,69.28
2019-03-24T00:11:58.337Z,69.28
2019-03-24T00:12:58.326Z,69.28
2019-03-24T00:13:58.317Z,68.66
2019-03-24T00:14:58.318Z,68.77
2019-03-24T00:15:58.295Z,68.97
2019-03-24T00:16:58.351Z,68.60
2019-03-24T00:17:58.272Z,68.66
2019-03-24T00:18:58.260Z,68.70
2019-03-24T00:19:58.282Z,68.66
2019-03-24T00:20:58.241Z,69.11
2019-03-24T00:21:58.222Z,69.42
2019-03-24T00:22:58.230Z,69.31
2019-03-24T00:23:58.200Z,69.42
2019-03-24T00:24:58.190Z,69.52
2019-03-24T00:25:58.216Z,69.62
2019-03-24T00:26:58.178Z,69.31
2019-03-24T00:27:58.160Z,69.31
2019-03-24T00:28:58.149Z,69.31
2019-03-24T00:29:58.152Z,69.21
2019-03-24T00:30:58.134Z,69.21
2019-03-24T00:31:58.187Z,69.21
2019-03-24T00:32:58.157Z,69.24
2019-03-24T00:33:58.094Z,68.80
2019-03-24T00:34:58.093Z,68.73
2019-03-24T00:35:58.076Z,68.84
2019-03-24T00:36:58.589Z,68.73
2019-03-24T00:37:58.058Z,69.04
2019-03-24T00:38:58.050Z,68.63
2019-03-24T00:39:58.047Z,68.84
2019-03-24T00:40:58.034Z,68.73
2019-03-24T00:41:58.013Z,69.04
2019-03-24T00:42:58.049Z,68.84
2019-03-24T00:43:57.993Z,68.93
2019-03-24T00:44:57.987Z,68.42
2019-03-24T00:45:57.971Z,68.60
2019-03-24T00:46:57.959Z,68.63
2019-03-24T00:47:57.974Z,68.52
2019-03-24T00:48:57.939Z,68.70
2019-03-24T00:49:57.945Z,68.12
2019-03-24T00:50:57.925Z,67.98
2019-03-24T00:51:57.915Z,67.98
2019-03-24T00:52:57.921Z,67.98
2019-03-24T00:53:57.951Z,67.47
2019-03-24T00:54:57.874Z,67.16
2019-03-24T00:55:57.864Z,67.37
2019-03-24T00:56:57.882Z,66.96
2019-03-24T00:57:57.848Z,66.66
2019-03-24T00:58:58.009Z,67.16
2019-03-24T00:59:57.819Z,66.86
2019-03-24T01:00:57.812Z,66.86
2019-03-24T01:01:57.806Z,66.75
2019-03-24T01:02:57.834Z,66.86
2019-03-24T01:03:57.829Z,66.86
2019-03-24T01:04:57.777Z,66.86
2019-03-24T01:05:57.759Z,66.86
2019-03-24T01:06:57.810Z,66.25
2019-03-24T01:07:57.741Z,66.04
2019-03-24T01:08:57.726Z,65.63
2019-03-24T01:09:57.744Z,66.66
2019-03-24T01:10:57.714Z,66.45
2019-03-24T01:11:57.698Z,65.84
2019-03-24T01:12:57.687Z,66.25
2019-03-24T01:13:57.674Z,65.94
2019-03-24T01:14:57.713Z,66.25
2019-03-24T01:15:57.656Z,65.94
2019-03-24T01:16:57.654Z,65.53
2019-03-24T01:17:57.628Z,66.96
2019-03-24T01:18:57.620Z,66.38
2019-03-24T01:19:57.607Z,66.75
2019-03-24T01:20:57.622Z,66.78
2019-03-24T01:21:57.594Z,66.17
2019-03-24T01:22:57.586Z,66.99
2019-03-24T01:23:57.571Z,65.87
2019-03-24T01:24:57.560Z,66.89
2019-03-24T01:25:57.594Z,65.77
2019-03-24T01:26:57.535Z,66.48
2019-03-24T01:27:57.527Z,66.07
2019-03-24T01:28:57.515Z,66.89
2019-03-24T01:29:57.515Z,66.20
2019-03-24T01:30:57.506Z,66.31
2019-03-24T01:31:57.514Z,66.10
2019-03-24T01:32:57.471Z,65.49
2019-03-24T01:33:57.489Z,66.10
2019-03-24T01:34:57.467Z,65.80
2019-03-24T01:35:57.451Z,66.34
2019-03-24T01:36:57.435Z,65.62
2019-03-24T01:37:57.442Z,65.83
2019-03-24T01:38:57.407Z,65.62
2019-03-24T01:39:57.399Z,65.31
2019-03-24T01:40:57.395Z,65.72
2019-03-24T01:41:57.386Z,65.01
2019-03-24T01:42:57.400Z,64.60
2019-03-24T01:43:57.370Z,64.50
2019-03-24T01:44:57.352Z,63.68
2019-03-24T01:45:58.785Z,64.09
2019-03-24T01:46:57.321Z,64.39
2019-03-24T01:47:57.322Z,63.57
2019-03-24T01:48:57.329Z,63.37
2019-03-24T01:49:57.293Z,63.37
2019-03-24T01:50:57.282Z,63.17
2019-03-24T01:51:57.272Z,62.76
2019-03-24T01:52:57.259Z,62.76
2019-03-24T01:53:57.403Z,63.06
2019-03-24T01:54:57.244Z,63.17
2019-03-24T01:55:57.228Z,62.65
2019-03-24T01:56:57.229Z,62.35
2019-03-24T01:57:57.213Z,62.14
2019-03-24T01:58:57.228Z,62.45
2019-03-24T01:59:57.189Z,61.83
2019-03-24T02:00:57.176Z,62.14
2019-03-24T02:01:57.171Z,61.83
2019-03-24T02:02:57.158Z,61.83
2019-03-24T02:03:57.144Z,61.93
2019-03-24T02:04:57.162Z,62.35
2019-03-24T02:05:57.154Z,62.24
2019-03-24T02:06:57.117Z,62.58
2019-03-24T02:07:57.108Z,62.07
2019-03-24T02:08:57.098Z,62.14
2019-03-24T02:09:57.221Z,62.07
2019-03-24T02:10:57.070Z,61.93
2019-03-24T02:11:57.099Z,61.76
2019-03-24T02:12:57.065Z,61.45
2019-03-24T02:13:57.568Z,61.96
2019-03-24T02:14:57.033Z,61.96
2019-03-24T02:15:57.041Z,62.48
2019-03-24T02:16:59.209Z,61.86
2019-03-24T02:17:56.995Z,61.76
2019-03-24T02:18:56.996Z,62.48
2019-03-24T02:19:56.981Z,61.86
2019-03-24T02:20:56.991Z,61.86
2019-03-24T02:21:56.953Z,61.96
2019-03-24T02:22:56.940Z,61.79
2019-03-24T02:23:56.937Z,61.45
2019-03-24T02:24:56.925Z,61.45
2019-03-24T02:25:56.941Z,61.45
2019-03-24T02:26:56.906Z,61.76
2019-03-24T02:27:56.901Z,61.58
2019-03-24T02:28:56.889Z,61.76
2019-03-24T02:29:56.868Z,61.76
2019-03-24T02:30:56.880Z,61.45
2019-03-24T02:31:56.858Z,61.69
2019-03-24T02:32:56.835Z,61.69
2019-03-24T02:33:56.896Z,61.48
2019-03-24T02:34:56.830Z,61.35
2019-03-24T02:35:56.829Z,61.27
2019-03-24T02:36:56.797Z,61.38
2019-03-24T02:37:56.822Z,61.69
2019-03-24T02:38:56.789Z,62.19
2019-03-24T02:39:56.768Z,61.99
2019-03-24T02:40:56.758Z,62.19
2019-03-24T02:41:56.746Z,62.40
2019-03-24T02:42:56.732Z,62.30
2019-03-24T02:43:56.739Z,62.19
2019-03-24T02:44:56.707Z,62.40
2019-03-24T02:45:56.703Z,62.71
2019-03-24T02:46:56.707Z,62.81
2019-03-24T02:47:56.680Z,62.81
2019-03-24T02:48:56.696Z,63.12
2019-03-24T02:49:56.655Z,63.22
2019-03-24T02:50:56.643Z,63.43
2019-03-24T02:51:56.646Z,63.22
2019-03-24T02:52:56.630Z,63.53
2019-03-24T02:53:56.633Z,63.12
2019-03-24T02:54:56.612Z,63.73
2019-03-24T02:55:56.595Z,63.53
2019-03-24T02:56:56.578Z,63.53
2019-03-24T02:57:56.574Z,63.43
2019-03-24T02:58:56.588Z,63.46
2019-03-24T02:59:56.556Z,63.84
2019-03-24T03:00:56.543Z,64.28
2019-03-24T03:01:56.526Z,63.56
2019-03-24T03:02:56.538Z,63.66
2019-03-24T03:03:56.527Z,63.35
2019-03-24T03:04:56.530Z,64.07
2019-03-24T03:05:56.490Z,64.17
2019-03-24T03:06:56.479Z,64.07
2019-03-24T03:07:56.463Z,64.07
2019-03-24T03:08:56.452Z,63.97
2019-03-24T03:09:56.447Z,63.87
2019-03-24T03:10:56.548Z,63.79
2019-03-24T03:11:56.428Z,63.76
2019-03-24T03:12:56.411Z,63.46
2019-03-24T03:13:56.401Z,63.56
2019-03-24T03:14:56.416Z,64.17
2019-03-24T03:15:56.408Z,63.56
2019-03-24T03:16:56.372Z,63.56
2019-03-24T03:17:56.360Z,63.87
2019-03-24T03:18:56.349Z,63.87
2019-03-24T03:19:56.363Z,63.79
2019-03-24T03:20:56.329Z,63.59
2019-03-24T03:21:56.345Z,63.49
2019-03-24T03:22:56.323Z,63.39
2019-03-24T03:23:56.294Z,63.39
2019-03-24T03:24:56.290Z,62.98
2019-03-24T03:25:56.291Z,63.18
2019-03-24T03:26:56.286Z,63.28
2019-03-24T03:27:56.283Z,63.49
2019-03-24T03:28:56.240Z,63.39
2019-03-24T03:29:56.236Z,63.28
2019-03-24T03:30:56.227Z,63.39
2019-03-24T03:31:56.252Z,63.28
2019-03-24T03:32:56.202Z,62.98
2019-03-24T03:33:56.181Z,63.59
2019-03-24T03:34:56.208Z,63.49
2019-03-24T03:35:56.176Z,62.98
2019-03-24T03:36:56.194Z,63.28
2019-03-24T03:37:56.149Z,62.77
2019-03-24T03:38:56.137Z,62.87
2019-03-24T03:39:58.199Z,62.66
2019-03-24T03:40:56.106Z,62.77
2019-03-24T03:41:56.101Z,62.87
2019-03-24T03:42:56.114Z,62.26
2019-03-24T03:43:56.081Z,61.85
2019-03-24T03:44:56.068Z,62.05
2019-03-24T03:46:04.619Z,61.85
2019-03-24T03:47:04.127Z,61.67
2019-03-24T03:48:04.113Z,61.87
2019-03-24T03:48:56.037Z,61.44
2019-03-24T03:49:56.032Z,61.98
2019-03-24T03:50:56.013Z,61.87
2019-03-24T03:51:55.988Z,61.98
2019-03-24T03:52:56.012Z,61.77
2019-03-24T03:53:58.892Z,61.77
2019-03-24T03:54:55.963Z,61.36
2019-03-24T03:55:55.961Z,61.36
2019-03-24T03:56:55.939Z,61.57
2019-03-24T03:57:55.925Z,61.46
2019-03-24T03:58:55.938Z,61.33
2019-03-24T03:59:55.913Z,61.26
2019-03-24T04:00:55.934Z,61.05
2019-03-24T04:01:55.901Z,61.16
2019-03-24T04:02:55.881Z,61.02
2019-03-24T04:03:55.863Z,60.92
2019-03-24T04:04:55.870Z,60.95
2019-03-24T04:05:55.867Z,61.16
2019-03-24T04:06:55.840Z,61.16
2019-03-24T04:07:55.822Z,60.85
2019-03-24T04:08:55.817Z,60.75
2019-03-24T04:09:55.824Z,60.95
2019-03-24T04:10:55.810Z,61.36
2019-03-24T04:11:55.783Z,61.36
2019-03-24T04:12:55.769Z,61.36
2019-03-24T04:13:55.769Z,61.36
2019-03-24T04:14:55.757Z,61.26
2019-03-24T04:15:55.757Z,61.29
2019-03-24T04:17:06.351Z,61.36
2019-03-24T04:17:56.747Z,61.36
2019-03-24T04:18:55.708Z,61.16
2019-03-24T04:19:55.695Z,61.16
2019-03-24T04:20:55.686Z,61.26
2019-03-24T04:21:55.669Z,61.98
2019-03-24T04:22:55.685Z,61.77
2019-03-24T04:24:04.218Z,61.70
2019-03-24T04:24:55.649Z,61.57
2019-03-24T04:25:55.640Z,61.90
2019-03-24T04:26:55.642Z,61.70
2019-03-24T04:27:55.626Z,62.21
2019-03-24T04:28:55.618Z,61.90
2019-03-24T04:29:55.601Z,61.80
2019-03-24T04:30:55.581Z,61.70
2019-03-24T04:31:55.576Z,61.90
2019-03-24T04:32:55.603Z,62.01
2019-03-24T04:33:55.547Z,61.90
2019-03-24T04:34:55.531Z,62.11
2019-03-24T04:35:55.561Z,62.21
2019-03-24T04:36:55.536Z,62.21
2019-03-24T04:37:55.505Z,62.01
2019-03-24T04:38:55.545Z,62.41
2019-03-24T04:39:55.490Z,62.11
2019-03-24T04:40:55.468Z,62.14
2019-03-24T04:41:55.462Z,62.45
2019-03-24T04:42:55.466Z,62.04
2019-03-24T04:43:55.444Z,62.24
2019-03-24T04:44:55.476Z,62.55
2019-03-24T04:45:55.419Z,62.34
2019-03-24T04:46:55.411Z,62.85
2019-03-24T04:47:55.418Z,62.96
2019-03-24T04:48:55.411Z,62.96
2019-03-24T04:49:55.377Z,62.55
2019-03-24T04:50:55.365Z,62.85
2019-03-24T04:51:55.354Z,62.65
2019-03-24T04:52:55.341Z,62.75
2019-03-24T04:53:55.334Z,63.34
2019-03-24T04:54:55.346Z,63.47
2019-03-24T04:55:55.311Z,62.85
2019-03-24T04:56:55.306Z,63.57
2019-03-24T04:57:55.316Z,63.57
2019-03-24T04:58:55.275Z,63.68
2019-03-24T04:59:55.284Z,63.37
2019-03-24T05:00:55.251Z,62.85
2019-03-24T05:01:55.250Z,63.68
2019-03-24T05:02:55.239Z,63.27
2019-03-24T05:03:55.226Z,63.27
2019-03-24T05:04:55.237Z,63.89
2019-03-24T05:05:55.236Z,63.78
2019-03-24T05:06:55.190Z,63.78
2019-03-24T05:07:55.187Z,63.98
2019-03-24T05:08:55.173Z,64.09
2019-03-24T05:09:55.158Z,64.19
2019-03-24T05:10:55.149Z,63.98
2019-03-24T05:11:55.158Z,64.09
2019-03-24T05:12:55.127Z,64.29
2019-03-24T05:13:55.121Z,64.09
2019-03-24T05:14:55.116Z,64.40
2019-03-24T05:15:55.130Z,64.81
2019-03-24T05:16:55.109Z,64.19
2019-03-24T05:17:55.079Z,64.40
2019-03-24T05:18:55.062Z,64.19
2019-03-24T05:19:55.051Z,64.70
2019-03-24T05:20:55.042Z,64.70
2019-03-24T05:21:55.068Z,63.98
2019-03-24T05:22:55.029Z,64.84
2019-03-24T05:23:55.021Z,64.60
2019-03-24T05:24:54.996Z,64.19
2019-03-24T05:25:54.993Z,64.19
2019-03-24T05:26:54.983Z,63.98
2019-03-24T05:27:54.995Z,64.50
2019-03-24T05:28:54.981Z,64.50
2019-03-24T05:29:54.954Z,64.91
2019-03-24T05:30:54.937Z,64.81
2019-03-24T05:31:54.923Z,64.29
2019-03-24T05:32:54.933Z,64.29
2019-03-24T05:33:54.940Z,64.19
2019-03-24T05:34:54.897Z,64.40
2019-03-24T05:35:54.887Z,64.60
2019-03-24T05:36:54.877Z,64.09
2019-03-24T05:37:54.858Z,64.40
2019-03-24T05:38:54.847Z,65.01
2019-03-24T05:39:54.874Z,64.91
2019-03-24T05:40:54.834Z,64.81
2019-03-24T05:41:54.815Z,64.50
2019-03-24T05:42:54.842Z,65.12
2019-03-24T05:43:54.795Z,64.81
2019-03-24T05:44:54.785Z,64.81
2019-03-24T05:45:54.814Z,64.70
2019-03-24T05:46:54.783Z,64.09
2019-03-24T05:47:54.757Z,64.81
2019-03-24T05:48:54.748Z,65.42
2019-03-24T05:49:54.743Z,65.32
2019-03-24T05:50:54.738Z,65.94
2019-03-24T05:51:54.751Z,65.42
2019-03-24T05:52:54.703Z,64.63
2019-03-24T05:53:54.697Z,64.81
2019-03-24T05:54:54.685Z,65.22
2019-03-24T05:55:54.692Z,64.91
2019-03-24T05:56:54.676Z,65.53
2019-03-24T05:57:54.655Z,65.12
2019-03-24T05:58:54.642Z,65.22
2019-03-24T05:59:54.631Z,64.60
2019-03-24T06:00:54.623Z,64.81
2019-03-24T06:01:54.627Z,64.09
2019-03-24T06:02:54.603Z,64.60
2019-03-24T06:03:54.588Z,64.29
2019-03-24T06:04:54.612Z,64.09
2019-03-24T06:05:54.567Z,64.09
2019-03-24T06:06:54.585Z,64.50
2019-03-24T06:07:54.546Z,63.98
2019-03-24T06:08:54.538Z,64.29
2019-03-24T06:09:54.531Z,64.19
2019-03-24T06:10:54.509Z,64.40
2019-03-24T06:11:54.549Z,63.78
2019-03-24T06:12:54.493Z,63.78
2019-03-24T06:13:54.475Z,64.50
2019-03-24T06:14:54.482Z,64.09
2019-03-24T06:15:54.467Z,64.09
2019-03-24T06:16:54.447Z,63.98
2019-03-24T06:17:54.461Z,64.19
2019-03-24T06:18:54.427Z,64.19
2019-03-24T06:19:54.418Z,63.68
2019-03-24T06:20:54.407Z,63.47
2019-03-24T06:21:54.411Z,63.89
2019-03-24T06:22:54.388Z,63.89
2019-03-24T06:23:54.381Z,64.40
2019-03-24T06:24:54.361Z,63.75
2019-03-24T06:25:54.371Z,63.75
2019-03-24T06:26:54.366Z,63.65
2019-03-24T06:27:54.328Z,63.24
2019-03-24T06:28:54.318Z,63.65
2019-03-24T06:29:54.314Z,63.65
2019-03-24T06:30:54.303Z,63.54
2019-03-24T06:31:54.313Z,62.93
2019-03-24T06:32:54.280Z,63.93
2019-03-24T06:33:54.275Z,63.54
2019-03-24T06:34:54.255Z,62.80
2019-03-24T06:35:54.252Z,62.90
2019-03-24T06:36:54.262Z,62.66
2019-03-24T06:37:54.220Z,61.74
2019-03-24T06:38:54.274Z,61.74
2019-03-24T06:39:54.198Z,61.64
2019-03-24T06:40:54.188Z,61.44
2019-03-24T06:41:54.222Z,61.20
2019-03-24T06:42:54.173Z,60.89
2019-03-24T06:43:54.157Z,61.00
2019-03-24T06:44:54.159Z,60.76
2019-03-24T06:45:54.147Z,60.86
2019-03-24T06:46:54.152Z,60.35
2019-03-24T06:47:58.284Z,60.76
2019-03-24T06:48:54.125Z,60.35
2019-03-24T06:49:54.093Z,60.02
2019-03-24T06:50:54.080Z,59.41
2019-03-24T06:51:54.069Z,59.20
2019-03-24T06:52:54.081Z,59.41
2019-03-24T06:53:54.055Z,58.28
2019-03-24T06:54:54.046Z,58.45
2019-03-24T06:55:54.049Z,58.76
2019-03-24T06:56:54.030Z,58.66
2019-03-24T06:57:54.026Z,57.94
2019-03-24T06:58:53.999Z,57.02
2019-03-24T06:59:54.001Z,57.51
2019-03-24T07:00:53.981Z,56.79
2019-03-24T07:01:53.966Z,56.79
2019-03-24T07:02:53.985Z,56.79
2019-03-24T07:03:53.941Z,56.79
2019-03-24T07:04:53.932Z,57.07
2019-03-24T07:05:53.928Z,56.87
2019-03-24T07:06:53.917Z,56.66
2019-03-24T07:07:53.911Z,56.56
2019-03-24T07:08:53.917Z,56.46
2019-03-24T07:09:53.878Z,56.35
2019-03-24T07:10:53.874Z,55.92
2019-03-24T07:11:53.916Z,55.62
2019-03-24T07:12:53.854Z,55.51
2019-03-24T07:13:53.873Z,55.41
2019-03-24T07:14:53.896Z,55.62
2019-03-24T07:15:53.817Z,55.21
2019-03-24T07:16:53.855Z,55.18
2019-03-24T07:17:53.806Z,55.18
2019-03-24T07:18:53.789Z,55.18
2019-03-24T07:19:53.865Z,54.26
2019-03-24T07:20:53.768Z,54.36
2019-03-24T07:21:53.782Z,54.46
2019-03-24T07:22:53.772Z,54.46
2019-03-24T07:23:53.748Z,54.67
2019-03-24T07:24:53.769Z,54.23
2019-03-24T07:25:53.864Z,54.26
2019-03-24T07:26:53.711Z,54.23
2019-03-24T07:27:53.705Z,54.33
2019-03-24T07:28:53.710Z,54.23
2019-03-24T07:29:54.176Z,54.21
2019-03-24T07:30:55.428Z,54.21
2019-03-24T07:31:59.234Z,54.00
2019-03-24T07:32:54.299Z,53.70
2019-03-24T07:33:53.631Z,53.70
2019-03-24T07:34:53.613Z,53.70
2019-03-24T07:35:53.629Z,53.39
2019-03-24T07:36:53.639Z,53.49
2019-03-24T07:37:53.585Z,53.49
2019-03-24T07:38:53.573Z,53.39
2019-03-24T07:39:53.585Z,53.49
2019-03-24T07:40:53.550Z,53.36
2019-03-24T07:41:53.537Z,52.86
2019-03-24T07:42:53.523Z,52.25
2019-03-24T07:43:53.527Z,51.93
2019-03-24T07:44:53.608Z,52.01
2019-03-24T07:45:53.523Z,51.48
2019-03-24T07:46:53.490Z,51.07
2019-03-24T07:47:53.472Z,51.07
2019-03-24T07:48:53.459Z,51.15
2019-03-24T07:49:53.486Z,50.84
2019-03-24T07:50:53.439Z,50.44
2019-03-24T07:51:53.433Z,50.74
2019-03-24T07:52:53.426Z,50.74
2019-03-24T07:53:53.404Z,50.44
2019-03-24T07:54:53.394Z,50.21
2019-03-24T07:55:53.417Z,49.83
2019-03-24T07:56:53.375Z,49.50
2019-03-24T07:57:53.366Z,50.11
2019-03-24T07:58:53.392Z,49.83
2019-03-24T07:59:53.349Z,50.11
2019-03-24T08:00:53.335Z,49.70
2019-03-24T08:01:53.359Z,49.60
2019-03-24T08:02:53.317Z,49.60
2019-03-24T08:03:53.309Z,49.80
2019-03-24T08:04:53.297Z,48.99
2019-03-24T08:05:53.284Z,48.79
2019-03-24T08:06:53.297Z,48.76
2019-03-24T08:07:53.297Z,48.76
2019-03-24T08:08:53.250Z,48.66
2019-03-24T08:09:53.244Z,48.15
2019-03-24T08:10:53.253Z,48.33
2019-03-24T08:11:53.225Z,47.39
2019-03-24T08:12:53.352Z,47.98
2019-03-24T08:13:54.197Z,47.27
2019-03-24T08:14:53.210Z,46.03
2019-03-24T08:15:53.172Z,46.03
2019-03-24T08:16:53.158Z,45.72
2019-03-24T08:17:53.174Z,45.20
2019-03-24T08:18:53.143Z,46.01
2019-03-24T08:19:53.124Z,45.17
2019-03-24T08:20:53.119Z,44.46
2019-03-24T08:21:53.119Z,44.34
2019-03-24T08:22:53.139Z,44.56
2019-03-24T08:23:53.121Z,44.34
2019-03-24T08:24:53.081Z,44.13
2019-03-24T08:25:53.060Z,44.12
2019-03-24T08:26:53.052Z,45.64
2019-03-24T08:27:53.041Z,44.52
2019-03-24T08:28:53.028Z,43.59
2019-03-24T08:29:53.053Z,44.50
2019-03-24T08:30:53.013Z,43.47
2019-03-24T08:31:52.999Z,43.67
2019-03-24T08:32:52.999Z,43.65
2019-03-24T08:33:52.989Z,44.06
2019-03-24T08:34:52.999Z,43.02
2019-03-24T08:35:53.051Z,41.28
2019-03-24T08:36:52.955Z,41.56
2019-03-24T08:37:52.943Z,41.95
2019-03-24T08:38:52.936Z,41.46
2019-03-24T08:39:52.949Z,41.55
2019-03-24T08:40:54.327Z,40.84
2019-03-24T08:41:53.049Z,40.86
2019-03-24T08:42:52.903Z,40.35
2019-03-24T08:43:52.893Z,40.98
2019-03-24T08:44:52.934Z,40.98
2019-03-24T08:45:52.925Z,41.60
2019-03-24T08:46:52.852Z,41.80
2019-03-24T08:47:52.843Z,40.88
2019-03-24T08:48:52.828Z,41.20
2019-03-24T08:49:52.825Z,41.08
2019-03-24T08:50:53.019Z,40.95
2019-03-24T08:51:52.832Z,41.46
2019-03-24T08:52:52.841Z,40.66
2019-03-24T08:53:52.858Z,40.53
2019-03-24T08:54:52.795Z,39.30
2019-03-24T08:55:52.833Z,39.08
2019-03-24T08:56:52.836Z,38.86
2019-03-24T08:57:52.827Z,38.95
2019-03-24T08:58:52.809Z,38.02
2019-03-24T08:59:52.713Z,37.18
2019-03-24T09:00:52.752Z,37.29
2019-03-24T09:01:53.359Z,37.18
2019-03-24T09:02:52.681Z,36.76
2019-03-24T09:03:52.665Z,36.66
2019-03-24T09:04:52.656Z,37.18
2019-03-24T09:05:52.642Z,36.98
2019-03-24T09:06:52.644Z,37.09
2019-03-24T09:07:52.663Z,37.29
2019-03-24T09:08:52.614Z,37.71
2019-03-24T09:09:52.596Z,37.51
2019-03-24T09:10:52.606Z,37.92
2019-03-24T09:11:52.574Z,38.44
2019-03-24T09:12:52.595Z,37.80
2019-03-24T09:13:52.556Z,37.18
2019-03-24T09:14:52.550Z,35.11
2019-03-24T09:15:52.546Z,35.45
2019-03-24T09:16:52.516Z,35.45
2019-03-24T09:17:52.504Z,34.36
2019-03-24T09:18:53.184Z,32.72
2019-03-24T09:19:52.490Z,32.20
2019-03-24T09:20:52.490Z,30.61
2019-03-24T09:21:52.478Z,28.77
2019-03-24T09:22:52.467Z,27.19
2019-03-24T09:23:52.440Z,26.17
2019-03-24T09:24:52.449Z,26.13
2019-03-24T09:25:52.429Z,25.77
2019-03-24T09:26:52.442Z,26.28
2019-03-24T09:27:52.406Z,24.96
2019-03-24T09:28:52.394Z,23.55
2019-03-24T09:29:52.448Z,25.16
2019-03-24T09:30:52.387Z,23.11
2019-03-24T09:31:52.368Z,23.86
2019-03-24T09:32:52.369Z,23.26
2019-03-24T09:33:52.344Z,23.63
2019-03-24T09:34:52.415Z,21.91
2019-03-24T09:35:52.347Z,20.98
2019-03-24T09:36:52.310Z,20.70
2019-03-24T09:37:52.331Z,20.46
2019-03-24T09:38:52.293Z,19.94
2019-03-24T09:39:52.282Z,18.44
2019-03-24T09:40:52.273Z,18.33
2019-03-24T09:41:52.292Z,18.80
2019-03-24T09:42:52.247Z,17.62
2019-03-24T09:43:52.232Z,17.50
2019-03-24T09:44:52.234Z,16.71
2019-03-24T09:45:52.264Z,17.00
2019-03-24T09:46:52.295Z,16.98
2019-03-24T09:47:52.214Z,16.31
2019-03-24T09:49:02.478Z,16.59
2019-03-24T09:49:53.197Z,17.07
2019-03-24T09:50:52.207Z,17.06
2019-03-24T09:51:52.185Z,16.85
2019-03-24T09:52:52.154Z,16.17
2019-03-24T09:53:52.215Z,16.26
2019-03-24T09:54:52.139Z,15.86
2019-03-24T09:55:52.172Z,16.44
2019-03-24T09:56:52.147Z,15.75
2019-03-24T09:57:52.115Z,15.06
2019-03-24T09:58:52.096Z,14.96
2019-03-24T09:59:52.106Z,15.44
2019-03-24T10:00:52.095Z,15.54
2019-03-24T10:01:52.071Z,15.05
2019-03-24T10:02:52.170Z,15.25
2019-03-24T10:03:52.087Z,15.34
2019-03-24T10:04:52.054Z,15.54
2019-03-24T10:05:52.044Z,15.06
2019-03-24T10:06:52.030Z,15.06
2019-03-24T10:07:52.021Z,14.96
2019-03-24T10:08:52.027Z,15.67
2019-03-24T10:09:51.996Z,17.02
2019-03-24T10:10:51.993Z,17.68
2019-03-24T10:11:52.015Z,17.27
2019-03-24T10:12:51.991Z,17.63
2019-03-24T10:13:51.960Z,17.66
2019-03-24T10:14:51.998Z,19.03
2019-03-24T10:15:51.935Z,20.97
2019-03-24T10:16:51.943Z,22.20
2019-03-24T10:17:51.955Z,22.08
2019-03-24T10:18:51.924Z,22.11
2019-03-24T10:19:51.932Z,22.66
2019-03-24T10:20:51.896Z,24.28
2019-03-24T10:21:51.888Z,25.01
2019-03-24T10:22:51.920Z,25.13
2019-03-24T10:23:51.871Z,26.03
2019-03-24T10:24:51.929Z,25.01
2019-03-24T10:25:51.854Z,25.04
2019-03-24T10:26:51.838Z,24.67
2019-03-24T10:27:51.826Z,25.49
2019-03-24T10:28:51.869Z,25.99
2019-03-24T10:29:51.841Z,27.01
2019-03-24T10:30:51.807Z,27.51
2019-03-24T10:31:51.786Z,27.42
2019-03-24T10:32:51.793Z,26.72
2019-03-24T10:33:51.809Z,27.22
2019-03-24T10:34:51.785Z,26.82
2019-03-24T10:35:51.792Z,27.33
2019-03-24T10:36:51.749Z,26.84
2019-03-24T10:37:51.742Z,27.55
2019-03-24T10:38:51.734Z,27.26
2019-03-24T10:39:51.778Z,27.15
2019-03-24T10:40:51.699Z,27.44
2019-03-24T10:41:51.729Z,27.72
2019-03-24T10:42:51.735Z,27.11
2019-03-24T10:43:51.685Z,26.61
2019-03-24T10:44:51.721Z,28.02
2019-03-24T10:45:51.634Z,27.22
2019-03-24T10:46:51.674Z,27.12
2019-03-24T10:47:51.623Z,26.42
2019-03-24T10:48:51.635Z,26.42
2019-03-24T10:49:51.604Z,27.32
2019-03-24T10:50:51.589Z,27.62
2019-03-24T10:51:51.583Z,26.03
2019-03-24T10:52:51.568Z,27.23
2019-03-24T10:53:51.557Z,27.45
2019-03-24T10:54:51.561Z,27.36
2019-03-24T10:55:51.530Z,27.46
2019-03-24T10:56:51.531Z,27.35
2019-03-24T10:57:51.522Z,27.36
2019-03-24T10:58:51.556Z,27.27
2019-03-24T10:59:51.514Z,27.29
2019-03-24T11:00:51.482Z,27.10
2019-03-24T11:01:51.490Z,27.40
2019-03-24T11:02:51.477Z,27.90
2019-03-24T11:03:52.297Z,28.42
2019-03-24T11:04:51.476Z,28.60
2019-03-24T11:05:51.512Z,28.11
2019-03-24T11:06:51.416Z,28.53
2019-03-24T11:07:51.403Z,28.43
2019-03-24T11:08:51.394Z,28.93
2019-03-24T11:09:51.472Z,28.24
2019-03-24T11:10:51.383Z,28.75
2019-03-24T11:11:51.368Z,28.64
2019-03-24T11:12:51.374Z,28.83
2019-03-24T11:13:51.346Z,28.85
2019-03-24T11:14:52.299Z,28.43
2019-03-24T11:15:51.360Z,29.25
2019-03-24T11:16:51.322Z,28.55
2019-03-24T11:17:51.324Z,28.75
2019-03-24T11:18:51.293Z,28.04
2019-03-24T11:19:51.314Z,28.56
2019-03-24T11:20:51.267Z,29.05
2019-03-24T11:21:51.267Z,28.34
2019-03-24T11:22:51.323Z,27.75
2019-03-24T11:23:51.236Z,28.44
2019-03-24T11:24:51.328Z,28.44
2019-03-24T11:25:51.245Z,28.14
2019-03-24T11:26:51.227Z,26.73
2019-03-24T11:27:51.220Z,27.24
2019-03-24T11:28:51.247Z,26.75
2019-03-24T11:29:51.193Z,27.25
2019-03-24T11:30:51.168Z,27.45
2019-03-24T11:31:51.169Z,27.97
2019-03-24T11:32:51.146Z,28.18
2019-03-24T11:33:51.135Z,28.18
2019-03-24T11:34:51.124Z,28.57
2019-03-24T11:35:51.117Z,27.97
2019-03-24T11:36:51.135Z,28.47
2019-03-24T11:37:51.081Z,28.56
2019-03-24T11:38:51.075Z,28.45
2019-03-24T11:39:51.060Z,28.36
2019-03-24T11:40:51.075Z,27.66
2019-03-24T11:41:51.397Z,27.34
2019-03-24T11:42:51.035Z,27.34
2019-03-24T11:43:51.055Z,27.54
2019-03-24T11:44:51.019Z,28.04
2019-03-24T11:45:51.041Z,28.14
2019-03-24T11:46:51.017Z,27.74
2019-03-24T11:47:50.997Z,27.35
2019-03-24T11:48:51.007Z,27.95
2019-03-24T11:49:51.033Z,27.35
2019-03-24T11:50:50.961Z,27.86
2019-03-24T11:51:50.975Z,28.45
2019-03-24T11:52:50.970Z,28.37
2019-03-24T11:53:51.037Z,28.97
2019-03-24T11:54:50.942Z,28.37
2019-03-24T11:55:50.908Z,28.37
2019-03-24T11:56:50.915Z,27.98
2019-03-24T11:57:51.578Z,28.58
2019-03-24T11:58:51.050Z,28.28
2019-03-24T11:59:50.859Z,28.38
2019-03-24T12:00:50.847Z,28.49
2019-03-24T12:01:50.887Z,28.69
2019-03-24T12:02:50.823Z,28.40
2019-03-24T12:03:50.828Z,28.69
2019-03-24T12:04:50.797Z,28.89
2019-03-24T12:05:50.788Z,28.97
2019-03-24T12:06:50.809Z,27.98
2019-03-24T12:07:50.799Z,27.17
2019-03-24T12:08:50.888Z,26.37
2019-03-24T12:09:50.815Z,26.99
2019-03-24T12:10:50.761Z,26.48
2019-03-24T12:11:50.846Z,26.39
2019-03-24T12:12:50.770Z,26.09
2019-03-24T12:13:50.705Z,26.80
2019-03-24T12:14:50.703Z,27.30
2019-03-24T12:15:50.760Z,27.50
2019-03-24T12:16:50.734Z,27.40
2019-03-24T12:17:50.712Z,27.20
2019-03-24T12:18:50.825Z,27.42
2019-03-24T12:19:56.689Z,27.31
2019-03-24T12:20:52.435Z,27.22
2019-03-24T12:21:50.647Z,28.34
2019-03-24T12:22:50.608Z,27.33
2019-03-24T12:23:50.732Z,27.62
2019-03-24T12:24:50.592Z,26.61
2019-03-24T12:25:50.612Z,27.92
2019-03-24T12:26:50.600Z,28.54
2019-03-24T12:27:50.616Z,28.02
2019-03-24T12:28:50.561Z,27.51
2019-03-24T12:29:50.536Z,27.31
2019-03-24T12:30:50.531Z,26.82
2019-03-24T12:31:50.512Z,27.44
2019-03-24T12:32:51.531Z,28.06
2019-03-24T12:33:50.574Z,28.26
2019-03-24T12:34:50.527Z,28.56
2019-03-24T12:35:50.614Z,28.16
2019-03-24T12:36:52.181Z,28.35
2019-03-24T12:37:50.535Z,29.56
2019-03-24T12:38:51.197Z,28.25
2019-03-24T12:39:52.655Z,28.44
2019-03-24T12:40:50.538Z,28.54
2019-03-24T12:41:50.467Z,27.72
2019-03-24T12:42:50.809Z,26.71
2019-03-24T12:43:50.419Z,27.43
2019-03-24T12:44:50.401Z,28.42
2019-03-24T12:45:50.785Z,27.11
2019-03-24T12:46:50.431Z,28.12
2019-03-24T12:47:50.353Z,27.63
2019-03-24T12:48:50.482Z,26.91
2019-03-24T12:49:50.426Z,26.72
2019-03-24T12:50:50.380Z,27.83
2019-03-24T12:51:50.350Z,27.23
2019-03-24T12:52:50.857Z,27.63